createdAt,value
2022-09-17T00:01:15.517Z,7.43
2022-09-17T00:03:43.237Z,8.50
2022-09-17T00:06:13.602Z,7.20
2022-09-17T00:08:42.679Z,6.97
2022-09-17T00:11:13.755Z,7.10
2022-09-17T00:13:43.685Z,7.00
2022-09-17T00:16:12.419Z,6.20
2022-09-17T00:18:41.938Z,6.10
2022-09-17T00:21:17.222Z,5.90
2022-09-17T00:23:45.440Z,5.82
2022-09-17T00:26:13.386Z,5.30
2022-09-17T00:28:45.328Z,5.10
2022-09-17T00:31:13.239Z,5.80
2022-09-17T00:33:41.036Z,5.35
2022-09-17T00:36:09.274Z,4.78
2022-09-17T00:38:37.057Z,4.18
2022-09-17T00:41:05.671Z,4.45
2022-09-17T00:43:36.110Z,4.40
2022-09-17T00:46:07.447Z,4.15
2022-09-17T00:48:35.325Z,4.25
2022-09-17T00:51:03.394Z,3.83
2022-09-17T00:53:31.694Z,3.40
2022-09-17T00:56:05.446Z,3.72
2022-09-17T00:58:39.048Z,3.30
2022-09-17T01:01:10.254Z,4.20
2022-09-17T01:03:38.243Z,3.47
2022-09-17T01:06:17.118Z,3.63
2022-09-17T01:08:58.289Z,5.88
2022-09-17T01:11:44.318Z,3.03
2022-09-17T01:14:24.566Z,3.20
2022-09-17T01:17:01.458Z,3.47
2022-09-17T01:20:05.253Z,3.90
2022-09-17T01:22:39.156Z,3.00
2022-09-17T01:25:24.713Z,3.85
2022-09-17T01:28:21.831Z,2.80
2022-09-17T01:31:19.477Z,3.13
2022-09-17T01:33:58.246Z,4.70
2022-09-17T01:36:43.806Z,4.23
2022-09-17T01:39:19.733Z,4.72
2022-09-17T01:41:54.996Z,4.33
2022-09-17T01:44:30.745Z,4.85
2022-09-17T01:47:05.749Z,3.03
2022-09-17T01:49:36.527Z,4.20
2022-09-17T01:52:04.959Z,5.13
2022-09-17T01:54:39.199Z,3.22
2022-09-17T01:57:15.234Z,3.30
2022-09-17T01:59:47.576Z,2.80
2022-09-17T02:02:22.041Z,2.83
2022-09-17T02:04:55.637Z,2.80
2022-09-17T02:07:23.935Z,3.17
2022-09-17T02:09:59.556Z,3.90
2022-09-17T02:12:33.929Z,2.95
2022-09-17T02:15:06.194Z,3.30
2022-09-17T02:17:40.260Z,2.42
2022-09-17T02:20:08.847Z,2.65
2022-09-17T02:22:43.349Z,2.50
2022-09-17T02:25:18.495Z,2.35
2022-09-17T02:27:56.122Z,2.42
2022-09-17T02:30:23.910Z,2.55
2022-09-17T02:32:54.340Z,2.67
2022-09-17T02:35:22.545Z,2.50
2022-09-17T02:37:53.063Z,2.30
2022-09-17T02:40:27.827Z,2.63
2022-09-17T02:43:09.020Z,2.85
2022-09-17T02:45:49.489Z,2.33
2022-09-17T02:48:40.703Z,3.47
2022-09-17T02:51:24.219Z,2.40
2022-09-17T02:54:01.635Z,2.10
2022-09-17T02:56:41.324Z,2.33
2022-09-17T02:59:16.556Z,2.67
2022-09-17T03:01:49.135Z,3.25
2022-09-17T03:04:20.785Z,2.35
2022-09-17T03:06:49.040Z,2.72
2022-09-17T03:09:16.978Z,2.50
2022-09-17T03:11:45.136Z,2.33
2022-09-17T03:14:12.910Z,2.13
2022-09-17T03:16:40.655Z,1.98
2022-09-17T03:19:08.511Z,2.42
2022-09-17T03:21:37.573Z,2.38
2022-09-17T03:24:05.661Z,3.25
2022-09-17T03:26:33.830Z,2.70
2022-09-17T03:29:01.579Z,3.83
2022-09-17T03:31:29.436Z,1.90
2022-09-17T03:33:57.325Z,3.22
2022-09-17T03:36:25.143Z,2.45
2022-09-17T03:38:56.463Z,2.13
2022-09-17T03:41:25.017Z,2.83
2022-09-17T03:43:52.801Z,3.50
2022-09-17T03:46:22.075Z,2.10
2022-09-17T03:48:49.882Z,2.65
2022-09-17T03:51:17.607Z,2.50
2022-09-17T03:53:45.361Z,2.20
2022-09-17T03:56:14.507Z,2.75
2022-09-17T03:58:42.252Z,5.43
2022-09-17T04:01:10.026Z,3.17
2022-09-17T04:03:38.100Z,2.25
2022-09-17T04:06:05.992Z,2.25
2022-09-17T04:08:33.801Z,2.83
2022-09-17T04:11:12.855Z,2.40
2022-09-17T04:13:41.938Z,2.20
2022-09-17T04:16:09.730Z,2.50
2022-09-17T04:18:37.727Z,2.88
2022-09-17T04:21:06.018Z,2.40
2022-09-17T04:23:33.757Z,2.35
2022-09-17T04:26:01.616Z,2.53
2022-09-17T04:28:29.448Z,2.30
2022-09-17T04:30:58.553Z,3.00
2022-09-17T04:33:26.838Z,3.85
2022-09-17T04:35:55.009Z,5.45
2022-09-17T04:38:22.731Z,2.90
2022-09-17T04:40:51.480Z,3.78
2022-09-17T04:43:19.227Z,4.95
2022-09-17T04:45:47.693Z,4.47
2022-09-17T04:48:17.875Z,4.43
2022-09-17T04:50:45.696Z,4.20
2022-09-17T04:53:13.470Z,4.93
2022-09-17T04:55:41.253Z,2.85
2022-09-17T04:58:09.091Z,2.92
2022-09-17T05:00:37.105Z,4.32
2022-09-17T05:03:05.233Z,3.70
2022-09-17T05:05:34.549Z,4.00
2022-09-17T05:08:02.675Z,2.50
2022-09-17T05:10:30.462Z,3.72
2022-09-17T05:12:58.743Z,3.30
2022-09-17T05:15:27.686Z,4.40
2022-09-17T05:17:55.512Z,3.83
2022-09-17T05:20:23.338Z,3.40
2022-09-17T05:22:53.444Z,4.10
2022-09-17T05:25:24.036Z,3.50
2022-09-17T05:27:52.562Z,3.50
2022-09-17T05:30:20.922Z,2.65
2022-09-17T05:32:49.123Z,3.35
2022-09-17T05:35:17.277Z,4.25
2022-09-17T05:37:45.017Z,3.30
2022-09-17T05:40:14.466Z,2.20
2022-09-17T05:42:42.260Z,3.23
2022-09-17T05:45:10.611Z,4.03
2022-09-17T05:47:38.502Z,4.25
2022-09-17T05:50:07.335Z,2.90
2022-09-17T05:52:35.092Z,4.50
2022-09-17T05:55:03.080Z,5.03
2022-09-17T05:57:32.203Z,3.42
2022-09-17T05:59:59.972Z,4.57
2022-09-17T06:02:27.785Z,4.03
2022-09-17T06:04:55.689Z,5.33
2022-09-17T06:07:23.435Z,3.53
2022-09-17T06:09:51.191Z,4.90
2022-09-17T06:12:18.973Z,3.13
2022-09-17T06:14:48.046Z,2.90
2022-09-17T06:17:19.091Z,4.65
2022-09-17T06:19:49.928Z,3.50
2022-09-17T06:22:19.426Z,4.25
2022-09-17T06:24:47.198Z,4.60
2022-09-17T06:27:14.955Z,5.50
2022-09-17T06:29:42.885Z,5.13
2022-09-17T06:32:12.977Z,6.30
2022-09-17T06:34:40.830Z,4.30
2022-09-17T06:37:08.702Z,3.67
2022-09-17T06:39:36.699Z,4.47
2022-09-17T06:42:05.081Z,3.20
2022-09-17T06:44:32.906Z,3.40
2022-09-17T06:47:00.715Z,3.50
2022-09-17T06:49:31.125Z,4.82
2022-09-17T06:51:58.881Z,4.60
2022-09-17T06:54:26.651Z,4.60
2022-09-17T06:56:54.522Z,5.22
2022-09-17T06:59:22.494Z,3.78
2022-09-17T07:01:50.314Z,3.83
2022-09-17T07:04:18.856Z,3.85
2022-09-17T07:06:48.120Z,5.43
2022-09-17T07:09:15.866Z,4.10
2022-09-17T07:11:43.811Z,6.30
2022-09-17T07:14:11.803Z,4.63
2022-09-17T07:16:39.615Z,5.90
2022-09-17T07:19:08.981Z,6.05
2022-09-17T07:21:37.001Z,6.53
2022-09-17T07:24:06.611Z,4.15
2022-09-17T07:26:34.383Z,3.63
2022-09-17T07:29:02.198Z,5.10
2022-09-17T07:31:30.443Z,4.72
2022-09-17T07:33:59.279Z,5.38
2022-09-17T07:36:27.243Z,5.47
2022-09-17T07:38:54.966Z,6.85
2022-09-17T07:41:24.589Z,3.95
2022-09-17T07:43:54.660Z,5.18
2022-09-17T07:46:22.846Z,5.10
2022-09-17T07:48:51.589Z,5.38
2022-09-17T07:51:22.789Z,3.30
2022-09-17T07:53:52.614Z,3.47
2022-09-17T07:56:20.799Z,5.83
2022-09-17T07:58:50.151Z,5.55
2022-09-17T08:01:20.757Z,3.42
2022-09-17T08:03:50.291Z,4.90
2022-09-17T08:06:20.585Z,4.97
2022-09-17T08:08:48.890Z,7.95
2022-09-17T08:11:38.224Z,6.90
2022-09-17T08:14:07.390Z,4.95
2022-09-17T08:16:35.181Z,5.83
2022-09-17T08:19:03.159Z,5.07
2022-09-17T08:21:30.919Z,5.05
2022-09-17T08:23:59.289Z,4.50
2022-09-17T08:26:27.804Z,4.03
2022-09-17T08:28:56.498Z,4.38
2022-09-17T08:31:28.235Z,6.30
2022-09-17T08:33:56.019Z,3.72
2022-09-17T08:36:25.973Z,3.08
2022-09-17T08:38:54.673Z,4.83
2022-09-17T08:41:29.190Z,5.80
2022-09-17T08:44:09.651Z,4.68
2022-09-17T08:46:43.755Z,5.60
2022-09-17T08:49:21.823Z,5.28
2022-09-17T08:52:03.633Z,5.45
2022-09-17T08:54:38.250Z,6.70
2022-09-17T08:57:19.314Z,5.68
2022-09-17T08:59:55.732Z,5.45
2022-09-17T09:02:37.182Z,5.45
2022-09-17T09:05:13.202Z,5.95
2022-09-17T09:07:45.564Z,5.28
2022-09-17T09:10:17.840Z,5.10
2022-09-17T09:12:46.511Z,4.57
2022-09-17T09:15:26.712Z,5.55
2022-09-17T09:17:56.797Z,5.72
2022-09-17T09:20:32.159Z,4.13
2022-09-17T09:23:03.544Z,3.92
2022-09-17T09:25:37.492Z,5.75
2022-09-17T09:28:19.054Z,6.13
2022-09-17T09:31:00.546Z,5.07
2022-09-17T09:33:33.066Z,5.93
2022-09-17T09:36:01.264Z,8.52
2022-09-17T09:38:34.379Z,6.23
2022-09-17T09:41:09.066Z,5.32
2022-09-17T09:44:02.589Z,4.95
2022-09-17T09:46:53.474Z,5.93
2022-09-17T09:49:40.680Z,5.85
2022-09-17T09:52:24.762Z,6.43
2022-09-17T09:55:04.901Z,4.13
2022-09-17T09:57:41.127Z,6.13
2022-09-17T10:00:27.874Z,5.90
2022-09-17T10:03:02.993Z,6.53
2022-09-17T10:05:33.011Z,5.22
2022-09-17T10:08:01.118Z,7.60
2022-09-17T10:10:28.939Z,5.38
2022-09-17T10:13:07.735Z,6.30
2022-09-17T10:15:35.499Z,6.70
2022-09-17T10:18:16.764Z,5.78
2022-09-17T10:20:58.435Z,6.28
2022-09-17T10:23:29.851Z,7.53
2022-09-17T10:25:58.266Z,7.68
2022-09-17T10:28:44.141Z,9.05
2022-09-17T10:31:12.272Z,4.53
2022-09-17T10:33:51.313Z,7.28
2022-09-17T10:36:39.502Z,7.60
2022-09-17T10:39:36.493Z,5.63
2022-09-17T10:42:06.105Z,5.63
2022-09-17T10:44:35.318Z,5.78
2022-09-17T10:47:12.907Z,6.45
2022-09-17T10:49:43.425Z,3.72
2022-09-17T10:52:25.559Z,4.90
2022-09-17T10:55:19.969Z,4.90
2022-09-17T10:58:02.959Z,5.35
2022-09-17T11:00:39.759Z,4.70
2022-09-17T11:03:32.486Z,5.28
2022-09-17T11:06:16.165Z,5.53
2022-09-17T11:08:57.320Z,6.03
2022-09-17T11:11:42.316Z,5.22
2022-09-17T11:14:20.222Z,4.78
2022-09-17T11:16:55.435Z,4.97
2022-09-17T11:19:36.326Z,4.88
2022-09-17T11:22:12.591Z,2.75
2022-09-17T11:25:21.179Z,3.20
2022-09-17T11:28:02.122Z,3.90
2022-09-17T11:30:40.528Z,4.75
2022-09-17T11:33:31.406Z,3.90
2022-09-17T11:36:04.342Z,4.22
2022-09-17T11:38:37.946Z,4.85
2022-09-17T11:41:11.874Z,4.88
2022-09-17T11:43:45.033Z,4.38
2022-09-17T11:46:19.831Z,6.40
2022-09-17T11:48:52.942Z,3.78
2022-09-17T11:51:28.866Z,4.22
2022-09-17T11:54:03.202Z,4.18
2022-09-17T11:56:36.902Z,3.28
2022-09-17T11:59:12.097Z,4.07
2022-09-17T12:01:47.724Z,3.47
2022-09-17T12:04:37.478Z,2.47
2022-09-17T12:07:18.827Z,3.70
2022-09-17T12:09:50.417Z,3.92
2022-09-17T12:12:47.539Z,4.40
2022-09-17T12:15:19.298Z,3.95
2022-09-17T12:18:08.788Z,5.05
2022-09-17T12:20:46.298Z,2.28
2022-09-17T12:23:19.007Z,3.63
2022-09-17T12:25:54.254Z,2.40
2022-09-17T12:28:32.729Z,2.97
2022-09-17T12:31:08.149Z,3.80
2022-09-17T12:33:38.987Z,3.78
2022-09-17T12:36:25.335Z,3.67
2022-09-17T12:39:16.185Z,4.13
2022-09-17T12:41:52.528Z,3.95
2022-09-17T12:44:47.999Z,4.38
2022-09-17T12:47:37.985Z,3.72
2022-09-17T12:50:18.668Z,5.03
2022-09-17T12:52:58.625Z,3.90
2022-09-17T12:55:36.926Z,5.10
2022-09-17T12:58:16.267Z,3.38
2022-09-17T13:00:50.255Z,4.47
2022-09-17T13:03:23.718Z,3.72
2022-09-17T13:06:19.519Z,4.85
2022-09-17T13:09:08.177Z,5.07
2022-09-17T13:12:09.954Z,4.25
2022-09-17T13:14:58.618Z,4.18
2022-09-17T13:17:34.846Z,3.97
2022-09-17T13:20:12.469Z,4.68
2022-09-17T13:22:46.401Z,4.00
2022-09-17T13:25:17.205Z,5.20
2022-09-17T13:27:45.857Z,5.88
2022-09-17T13:30:15.431Z,6.32
2022-09-17T13:32:48.865Z,3.77
2022-09-17T13:35:51.573Z,3.50
2022-09-17T13:38:24.334Z,4.68
2022-09-17T13:40:53.129Z,3.78
2022-09-17T13:43:26.471Z,4.93
2022-09-17T13:46:15.623Z,4.32
2022-09-17T13:48:57.821Z,5.55
2022-09-17T13:51:46.257Z,3.63
2022-09-17T13:54:15.951Z,2.67
2022-09-17T13:56:46.851Z,5.53
2022-09-17T13:59:18.759Z,4.38
2022-09-17T14:02:34.983Z,4.65
2022-09-17T14:05:34.402Z,3.65
2022-09-17T14:08:28.546Z,2.63
2022-09-17T14:10:58.847Z,3.70
2022-09-17T14:13:52.341Z,2.83
2022-09-17T14:16:46.901Z,3.58
2022-09-17T14:19:34.131Z,2.87
2022-09-17T14:22:14.222Z,3.00
2022-09-17T14:24:48.946Z,2.50
2022-09-17T14:27:42.047Z,2.35
2022-09-17T14:30:16.621Z,3.00
2022-09-17T14:32:50.629Z,4.00
2022-09-17T14:35:22.526Z,2.50
2022-09-17T14:37:56.368Z,3.67
2022-09-17T14:40:25.158Z,4.20
2022-09-17T14:42:56.775Z,2.92
2022-09-17T14:45:29.162Z,2.40
2022-09-17T14:48:19.748Z,3.97
2022-09-17T14:50:47.606Z,4.13
2022-09-17T14:53:19.321Z,3.10
2022-09-17T14:55:50.301Z,2.72
2022-09-17T14:58:33.879Z,2.75
2022-09-17T15:01:02.151Z,3.10
2022-09-17T15:03:29.935Z,3.13
2022-09-17T15:05:57.670Z,2.63
2022-09-17T15:08:30.837Z,1.52
2022-09-17T15:11:00.962Z,2.78
2022-09-17T15:13:31.015Z,2.57
2022-09-17T15:16:02.127Z,2.38
2022-09-17T15:18:36.968Z,1.58
2022-09-17T15:21:12.051Z,2.30
2022-09-17T15:23:42.998Z,1.95
2022-09-17T15:26:12.598Z,2.10
2022-09-17T15:28:44.788Z,1.60
2022-09-17T15:31:18.200Z,2.17
2022-09-17T15:33:46.994Z,1.77
2022-09-17T15:36:21.261Z,1.40
2022-09-17T15:38:51.457Z,1.35
2022-09-17T15:41:30.440Z,2.50
2022-09-17T15:44:30.880Z,2.40
2022-09-17T15:47:41.241Z,1.23
2022-09-17T15:50:16.178Z,1.85
2022-09-17T15:52:44.396Z,2.53
2022-09-17T15:55:37.414Z,2.65
2022-09-17T15:58:19.914Z,3.15
2022-09-17T16:00:48.041Z,2.63
2022-09-17T16:04:08.928Z,3.00
2022-09-17T16:06:39.030Z,1.90
2022-09-17T16:09:46.814Z,2.00
2022-09-17T16:12:18.055Z,2.70
2022-09-17T16:14:47.766Z,2.00
2022-09-17T16:17:29.194Z,2.90
2022-09-17T16:19:58.819Z,2.38
2022-09-17T16:22:29.404Z,2.08
2022-09-17T16:24:58.483Z,3.22
2022-09-17T16:27:30.094Z,1.65
2022-09-17T16:30:03.117Z,1.88
2022-09-17T16:32:31.132Z,1.70
2022-09-17T16:34:59.480Z,1.73
2022-09-17T16:37:27.273Z,1.60
2022-09-17T16:39:55.069Z,1.70
2022-09-17T16:42:24.171Z,1.33
2022-09-17T16:44:51.930Z,1.00
2022-09-17T16:47:19.731Z,1.67
2022-09-17T16:49:47.470Z,1.52
2022-09-17T16:52:15.239Z,1.58
2022-09-17T16:54:43.030Z,1.63
2022-09-17T16:57:10.777Z,1.27
2022-09-17T16:59:39.870Z,1.10
2022-09-17T17:02:08.136Z,1.13
2022-09-17T17:04:35.853Z,1.58
2022-09-17T17:07:03.720Z,1.73
2022-09-17T17:09:31.477Z,1.90
2022-09-17T17:11:59.242Z,1.70
2022-09-17T17:14:27.000Z,1.83
2022-09-17T17:16:56.275Z,1.95
2022-09-17T17:19:25.138Z,2.90
2022-09-17T17:21:53.740Z,3.10
2022-09-17T17:24:21.519Z,1.60
2022-09-17T17:26:49.391Z,1.77
2022-09-17T17:29:17.486Z,2.10
2022-09-17T17:31:45.276Z,1.40
2022-09-17T17:34:14.416Z,1.67
2022-09-17T17:36:42.138Z,2.22
2022-09-17T17:39:10.372Z,1.75
2022-09-17T17:41:38.411Z,1.52
2022-09-17T17:44:06.151Z,1.33
2022-09-17T17:46:33.938Z,1.75
2022-09-17T17:49:01.765Z,1.67
2022-09-17T17:51:30.862Z,1.20
2022-09-17T17:53:58.677Z,1.90
2022-09-17T17:56:26.446Z,2.25
2022-09-17T17:58:56.343Z,3.42
2022-09-17T18:01:28.732Z,1.10
2022-09-17T18:04:00.966Z,1.30
2022-09-17T18:06:31.120Z,2.05
2022-09-17T18:08:58.935Z,1.90
2022-09-17T18:11:27.282Z,1.80
2022-09-17T18:13:58.428Z,1.58
2022-09-17T18:16:26.169Z,1.35
2022-09-17T18:18:55.799Z,2.50
2022-09-17T18:21:25.510Z,2.90
2022-09-17T18:23:54.591Z,1.35
2022-09-17T18:26:24.234Z,1.65
2022-09-17T18:28:53.003Z,2.10
2022-09-17T18:31:23.582Z,2.45
2022-09-17T18:33:51.595Z,2.03
2022-09-17T18:36:19.335Z,1.73
2022-09-17T18:38:47.149Z,2.35
2022-09-17T18:41:16.227Z,3.22
2022-09-17T18:43:44.221Z,1.77
2022-09-17T18:46:11.994Z,1.85
2022-09-17T18:48:39.751Z,1.88
2022-09-17T18:51:09.278Z,2.88
2022-09-17T18:53:38.115Z,3.35
2022-09-17T18:56:11.068Z,2.00
2022-09-17T18:58:40.186Z,1.98
2022-09-17T19:01:08.526Z,2.13
2022-09-17T19:03:36.365Z,2.35
2022-09-17T19:06:05.278Z,3.30
2022-09-17T19:08:33.548Z,2.08
2022-09-17T19:11:01.685Z,2.30
2022-09-17T19:13:34.942Z,2.50
2022-09-17T19:16:04.659Z,2.60
2022-09-17T19:18:33.159Z,1.98
2022-09-17T19:21:01.847Z,3.30
2022-09-17T19:23:31.137Z,3.10
2022-09-17T19:26:05.086Z,4.90
2022-09-17T19:28:32.857Z,2.35
2022-09-17T19:31:00.689Z,2.38
2022-09-17T19:33:29.810Z,2.00
2022-09-17T19:36:00.572Z,2.00
2022-09-17T19:38:29.277Z,2.63
2022-09-17T19:40:58.355Z,2.08
2022-09-17T19:43:26.719Z,2.00
2022-09-17T19:46:01.087Z,2.22
2022-09-17T19:48:30.659Z,2.17
2022-09-17T19:50:58.895Z,2.53
2022-09-17T19:53:26.770Z,2.50
2022-09-17T19:55:54.819Z,2.85
2022-09-17T19:58:22.574Z,2.05
2022-09-17T20:00:55.870Z,2.15
2022-09-17T20:03:23.656Z,3.35
2022-09-17T20:05:59.518Z,2.60
2022-09-17T20:08:27.344Z,3.45
2022-09-17T20:10:55.117Z,2.70
2022-09-17T20:13:23.175Z,2.88
2022-09-17T20:15:50.975Z,2.47
2022-09-17T20:18:22.657Z,3.15
2022-09-17T20:20:52.850Z,3.42
2022-09-17T20:23:20.566Z,2.92
2022-09-17T20:25:52.736Z,2.20
2022-09-17T20:28:20.522Z,2.78
2022-09-17T20:30:48.269Z,2.92
2022-09-17T20:33:17.447Z,2.47
2022-09-17T20:35:46.674Z,2.93
2022-09-17T20:41:04.654Z,2.60
2022-09-17T20:43:34.647Z,3.85
2022-09-17T20:46:02.959Z,2.65
2022-09-17T20:48:31.679Z,2.33
2022-09-17T20:51:01.292Z,3.38
2022-09-17T20:53:33.364Z,2.83
2022-09-17T20:56:03.086Z,2.70
2022-09-17T20:58:33.473Z,4.43
2022-09-17T21:01:06.651Z,3.10
2022-09-17T21:03:34.638Z,2.50
2022-09-17T21:06:02.641Z,3.03
2022-09-17T21:08:31.834Z,3.13
2022-09-17T21:11:03.917Z,2.90
2022-09-17T21:13:31.666Z,3.00
2022-09-17T21:16:00.695Z,3.80
2022-09-17T21:18:29.007Z,3.53
2022-09-17T21:20:57.042Z,3.30
2022-09-17T21:23:25.419Z,2.47
2022-09-17T21:26:02.058Z,2.60
2022-09-17T21:28:31.190Z,3.10
2022-09-17T21:31:04.690Z,2.53
2022-09-17T21:33:32.517Z,2.27
2022-09-17T21:36:04.996Z,2.20
2022-09-17T21:38:32.780Z,2.77
2022-09-17T21:41:04.432Z,1.65
2022-09-17T21:43:33.028Z,2.63
2022-09-17T21:46:03.289Z,1.83
2022-09-17T21:48:32.126Z,1.40
2022-09-17T21:51:04.821Z,1.20
2022-09-17T21:53:32.873Z,1.63
2022-09-17T21:56:07.217Z,2.70
2022-09-17T21:58:35.569Z,1.55
2022-09-17T22:01:08.045Z,1.15
2022-09-17T22:03:36.271Z,1.50
2022-09-17T22:06:06.211Z,2.53
2022-09-17T22:08:36.314Z,1.67
2022-09-17T22:11:08.501Z,1.27
2022-09-17T22:13:36.771Z,1.30
2022-09-17T22:16:06.262Z,1.10
2022-09-17T22:18:36.367Z,2.08
2022-09-17T22:21:13.282Z,1.73
2022-09-17T22:23:41.271Z,1.15
2022-09-17T22:26:10.723Z,1.13
2022-09-17T22:28:38.470Z,2.00
2022-09-17T22:31:08.710Z,1.40
2022-09-17T22:33:37.943Z,1.52
2022-09-17T22:36:07.820Z,1.65
2022-09-17T22:38:36.017Z,1.80
2022-09-17T22:41:06.434Z,1.50
2022-09-17T22:43:36.089Z,1.35
2022-09-17T22:46:12.714Z,1.55
2022-09-17T22:48:40.966Z,2.10
2022-09-17T22:51:09.177Z,1.83
2022-09-17T22:53:37.778Z,1.70
2022-09-17T22:56:07.731Z,2.05
2022-09-17T22:58:37.006Z,2.28
2022-09-17T23:01:06.411Z,1.35
2022-09-17T23:03:34.595Z,2.27
2022-09-17T23:06:03.546Z,1.70
2022-09-17T23:08:31.597Z,1.75
2022-09-17T23:10:59.898Z,1.75
2022-09-17T23:13:27.774Z,2.37
2022-09-17T23:16:01.297Z,2.15
2022-09-17T23:18:29.111Z,2.60
2022-09-17T23:20:58.422Z,2.58
2022-09-17T23:23:26.789Z,2.47
2022-09-17T23:25:55.133Z,2.13
2022-09-17T23:28:23.250Z,2.15
2022-09-17T23:30:51.222Z,3.23
2022-09-17T23:33:20.330Z,2.50
2022-09-17T23:35:48.126Z,2.40
2022-09-17T23:38:15.956Z,4.27
2022-09-17T23:40:43.683Z,2.95
2022-09-17T23:43:11.416Z,4.53
2022-09-17T23:45:39.172Z,4.63
2022-09-17T23:48:06.950Z,4.60
2022-09-17T23:50:36.014Z,3.33
2022-09-17T23:53:03.847Z,6.65
2022-09-17T23:55:31.614Z,4.30
2022-09-17T23:57:59.340Z,3.80
